createdAt,value
2023-05-15T00:00:47.672Z,55.70
2023-05-15T00:03:16.294Z,55.70
2023-05-15T00:05:44.611Z,55.70
2023-05-15T00:08:12.496Z,55.70
2023-05-15T00:10:44.900Z,55.70
2023-05-15T00:13:19.007Z,55.70
2023-05-15T00:15:48.403Z,55.60
2023-05-15T00:18:16.328Z,55.60
2023-05-15T00:20:44.217Z,55.60
2023-05-15T00:23:12.128Z,55.60
2023-05-15T00:25:40.045Z,55.60
2023-05-15T00:28:07.935Z,55.60
2023-05-15T00:30:35.823Z,55.60
2023-05-15T00:33:05.327Z,55.60
2023-05-15T00:35:33.684Z,55.60
2023-05-15T00:38:01.488Z,55.70
2023-05-15T00:40:30.108Z,55.60
2023-05-15T00:42:59.041Z,55.60
2023-05-15T00:45:28.009Z,55.60
2023-05-15T00:47:56.896Z,55.60
2023-05-15T00:50:27.126Z,55.60
2023-05-15T00:52:56.382Z,55.60
2023-05-15T00:55:24.509Z,55.60
2023-05-15T00:57:54.539Z,55.80
2023-05-15T01:00:22.935Z,55.60
2023-05-15T01:02:51.069Z,55.60
2023-05-15T01:05:19.225Z,55.60
2023-05-15T01:07:57.442Z,55.60
2023-05-15T01:10:25.455Z,55.60
2023-05-15T01:12:55.807Z,55.60
2023-05-15T01:15:25.808Z,55.60
2023-05-15T01:17:53.939Z,55.60
2023-05-15T01:20:23.470Z,55.60
2023-05-15T01:23:20.554Z,55.60
2023-05-15T01:26:21.936Z,55.60
2023-05-15T01:28:58.723Z,55.60
2023-05-15T01:31:32.832Z,55.60
2023-05-15T01:34:06.734Z,55.60
2023-05-15T01:36:39.996Z,55.60
2023-05-15T01:39:09.331Z,55.60
2023-05-15T01:41:42.623Z,55.60
2023-05-15T01:44:18.354Z,55.70
2023-05-15T01:46:50.343Z,55.60
2023-05-15T01:49:20.479Z,55.60
2023-05-15T01:51:55.499Z,55.60
2023-05-15T01:54:24.207Z,55.60
2023-05-15T01:56:53.222Z,55.60
2023-05-15T01:59:24.188Z,55.60
2023-05-15T02:01:53.022Z,55.60
2023-05-15T02:04:21.990Z,55.50
2023-05-15T02:06:51.038Z,55.60
2023-05-15T02:09:20.763Z,55.60
2023-05-15T02:11:49.168Z,55.60
2023-05-15T02:14:18.402Z,55.60
2023-05-15T02:16:47.736Z,55.60
2023-05-15T02:19:16.779Z,55.60
2023-05-15T02:21:44.771Z,55.60
2023-05-15T02:24:12.679Z,55.60
2023-05-15T02:26:48.575Z,55.60
2023-05-15T02:29:22.053Z,55.50
2023-05-15T02:32:00.675Z,55.60
2023-05-15T02:34:35.702Z,55.60
2023-05-15T02:37:05.892Z,55.60
2023-05-15T02:39:34.531Z,55.60
2023-05-15T02:42:03.227Z,55.60
2023-05-15T02:44:33.378Z,55.60
2023-05-15T02:47:03.416Z,55.60
2023-05-15T02:49:31.254Z,55.60
2023-05-15T02:51:59.087Z,55.60
2023-05-15T02:54:26.940Z,55.50
2023-05-15T02:56:54.781Z,55.60
2023-05-15T02:59:23.061Z,55.70
2023-05-15T03:01:50.959Z,55.70
2023-05-15T03:04:20.225Z,55.70
2023-05-15T03:06:48.074Z,55.60
2023-05-15T03:09:16.490Z,55.60
2023-05-15T03:11:44.368Z,55.60
2023-05-15T03:14:12.276Z,55.50
2023-05-15T03:16:40.220Z,55.60
2023-05-15T03:19:08.118Z,55.60
2023-05-15T03:21:37.405Z,55.60
2023-05-15T03:24:05.478Z,55.50
2023-05-15T03:26:33.331Z,55.60
2023-05-15T03:29:02.398Z,55.60
2023-05-15T03:31:30.305Z,55.60
2023-05-15T03:33:58.188Z,55.60
2023-05-15T03:36:26.023Z,55.50
2023-05-15T03:38:55.242Z,55.50
2023-05-15T03:41:23.181Z,55.50
2023-05-15T03:43:51.098Z,55.50
2023-05-15T03:46:18.957Z,55.50
2023-05-15T03:48:46.862Z,55.60
2023-05-15T03:51:14.726Z,55.60
2023-05-15T03:53:42.657Z,55.50
2023-05-15T03:56:11.945Z,55.50
2023-05-15T03:58:39.787Z,56.20
2023-05-15T04:01:07.931Z,55.50
2023-05-15T04:03:35.802Z,55.60
2023-05-15T04:06:03.730Z,55.60
2023-05-15T04:08:31.610Z,55.50
2023-05-15T04:10:59.467Z,55.60
2023-05-15T04:13:28.688Z,55.60
2023-05-15T04:15:57.328Z,55.60
2023-05-15T04:18:25.388Z,55.60
2023-05-15T04:20:53.580Z,55.60
2023-05-15T04:23:21.396Z,55.60
2023-05-15T04:25:49.272Z,55.60
2023-05-15T04:28:17.450Z,55.60
2023-05-15T04:30:46.684Z,55.60
2023-05-15T04:33:14.683Z,55.60
2023-05-15T04:35:43.207Z,55.60
2023-05-15T04:38:11.157Z,55.60
2023-05-15T04:40:39.202Z,55.60
2023-05-15T04:43:07.045Z,55.60
2023-05-15T04:45:34.993Z,55.60
2023-05-15T04:48:05.000Z,55.60
2023-05-15T04:50:32.914Z,55.60
2023-05-15T04:53:00.796Z,55.60
2023-05-15T04:55:28.700Z,55.60
2023-05-15T04:57:56.562Z,55.60
2023-05-15T05:00:24.611Z,55.60
2023-05-15T05:02:52.516Z,55.60
2023-05-15T05:05:22.125Z,55.60
2023-05-15T05:07:51.989Z,55.60
2023-05-15T05:10:20.045Z,55.60
2023-05-15T05:12:47.867Z,55.60
2023-05-15T05:15:15.828Z,55.60
2023-05-15T05:17:43.824Z,55.60
2023-05-15T05:20:13.517Z,55.60
2023-05-15T05:22:42.878Z,55.60
2023-05-15T05:25:11.153Z,55.60
2023-05-15T05:27:38.984Z,55.70
2023-05-15T05:30:08.788Z,55.60
2023-05-15T05:32:36.734Z,55.60
2023-05-15T05:35:05.005Z,55.60
2023-05-15T05:37:32.944Z,55.60
2023-05-15T05:40:02.133Z,55.60
2023-05-15T05:42:30.029Z,55.60
2023-05-15T05:44:57.994Z,55.60
2023-05-15T05:47:25.980Z,55.60
2023-05-15T05:49:55.093Z,55.60
2023-05-15T05:52:23.062Z,55.70
2023-05-15T05:54:50.938Z,55.60
2023-05-15T05:57:20.234Z,55.70
2023-05-15T05:59:49.753Z,55.70
2023-05-15T06:02:17.889Z,55.70
2023-05-15T06:04:46.044Z,55.70
2023-05-15T06:07:14.168Z,55.60
2023-05-15T06:09:42.076Z,55.70
2023-05-15T06:12:09.977Z,55.60
2023-05-15T06:14:39.165Z,55.70
2023-05-15T06:17:07.127Z,55.60
2023-05-15T06:19:35.006Z,55.60
2023-05-15T06:22:02.904Z,55.60
2023-05-15T06:24:30.805Z,55.60
2023-05-15T06:26:58.800Z,55.60
2023-05-15T06:29:27.267Z,55.60
2023-05-15T06:31:56.517Z,55.60
2023-05-15T06:34:24.385Z,55.60
2023-05-15T06:36:52.590Z,55.60
2023-05-15T06:39:20.441Z,55.60
2023-05-15T06:41:48.360Z,55.60
2023-05-15T06:44:16.243Z,55.60
2023-05-15T06:46:44.319Z,55.60
2023-05-15T06:49:13.596Z,55.60
2023-05-15T06:51:41.484Z,55.70
2023-05-15T06:54:09.338Z,55.60
2023-05-15T06:56:37.166Z,55.70
2023-05-15T06:59:05.015Z,55.70
2023-05-15T07:01:33.181Z,55.70
2023-05-15T07:04:01.113Z,55.70
2023-05-15T07:06:31.886Z,55.70
2023-05-15T07:08:59.891Z,55.70
2023-05-15T07:11:28.502Z,55.70
2023-05-15T07:13:56.668Z,55.70
2023-05-15T07:16:24.537Z,55.70
2023-05-15T07:18:52.578Z,55.70
2023-05-15T07:21:20.542Z,55.70
2023-05-15T07:23:49.729Z,56.40
2023-05-15T07:26:27.564Z,55.70
2023-05-15T07:29:01.010Z,55.80
2023-05-15T07:31:28.939Z,55.70
2023-05-15T07:33:56.782Z,55.70
2023-05-15T07:36:24.699Z,55.70
2023-05-15T07:38:53.872Z,55.70
2023-05-15T07:41:21.942Z,55.80
2023-05-15T07:43:49.788Z,55.70
2023-05-15T07:46:17.687Z,55.80
2023-05-15T07:48:45.573Z,55.80
2023-05-15T07:51:13.401Z,55.70
2023-05-15T07:53:41.254Z,55.70
2023-05-15T07:56:10.776Z,55.70
2023-05-15T07:58:38.590Z,55.90
2023-05-15T08:01:06.715Z,55.70
2023-05-15T08:03:34.955Z,55.80
2023-05-15T08:06:02.853Z,55.70
2023-05-15T08:08:30.841Z,55.90
2023-05-15T08:10:58.770Z,55.70
2023-05-15T08:13:28.745Z,55.80
2023-05-15T08:15:56.718Z,55.90
2023-05-15T08:18:24.631Z,55.80
2023-05-15T08:20:53.239Z,55.90
2023-05-15T08:23:21.109Z,55.90
2023-05-15T08:25:48.989Z,55.90
2023-05-15T08:28:16.918Z,55.90
2023-05-15T08:30:46.141Z,55.90
2023-05-15T08:33:13.993Z,55.90
2023-05-15T08:35:41.922Z,55.90
2023-05-15T08:38:09.787Z,55.80
2023-05-15T08:40:40.110Z,55.90
2023-05-15T08:43:14.923Z,55.90
2023-05-15T08:45:43.063Z,55.80
2023-05-15T08:48:15.048Z,55.80
2023-05-15T08:50:44.532Z,55.90
2023-05-15T08:53:14.038Z,55.90
2023-05-15T08:55:42.596Z,55.90
2023-05-15T08:58:10.948Z,55.90
2023-05-15T09:00:39.360Z,55.80
2023-05-15T09:03:07.945Z,55.90
2023-05-15T09:05:39.995Z,55.90
2023-05-15T09:08:09.212Z,55.90
2023-05-15T09:10:37.342Z,55.80
2023-05-15T09:13:07.425Z,55.90
2023-05-15T09:15:35.628Z,55.90
2023-05-15T09:18:03.630Z,55.90
2023-05-15T09:20:33.381Z,55.90
2023-05-15T09:23:04.178Z,55.90
2023-05-15T09:25:37.508Z,55.90
2023-05-15T09:28:06.013Z,55.90
2023-05-15T09:30:34.737Z,55.90
2023-05-15T09:33:04.320Z,55.80
2023-05-15T09:35:37.344Z,55.90
2023-05-15T09:38:12.038Z,55.90
2023-05-15T09:40:41.010Z,55.90
2023-05-15T09:43:11.794Z,55.90
2023-05-15T09:45:39.773Z,55.90
2023-05-15T09:48:08.806Z,55.90
2023-05-15T09:50:38.088Z,55.90
2023-05-15T09:53:07.578Z,55.90
2023-05-15T09:55:36.271Z,55.90
2023-05-15T09:58:09.143Z,55.90
2023-05-15T10:00:47.996Z,55.90
2023-05-15T10:03:19.114Z,55.90
2023-05-15T10:05:47.311Z,55.90
2023-05-15T10:08:17.154Z,55.90
2023-05-15T10:10:46.828Z,55.90
2023-05-15T10:13:16.331Z,55.90
2023-05-15T10:15:44.437Z,55.90
2023-05-15T10:18:14.442Z,55.90
2023-05-15T10:20:42.924Z,55.90
2023-05-15T10:23:13.571Z,55.90
2023-05-15T10:25:51.415Z,55.90
2023-05-15T10:28:20.823Z,55.90
2023-05-15T10:30:49.817Z,55.90
2023-05-15T10:33:18.209Z,55.90
2023-05-15T10:35:47.918Z,55.90
2023-05-15T10:38:16.482Z,55.90
2023-05-15T10:40:46.638Z,55.90
2023-05-15T10:43:15.891Z,55.90
2023-05-15T10:45:45.724Z,55.90
2023-05-15T10:48:15.108Z,55.90
2023-05-15T10:50:43.092Z,55.80
2023-05-15T10:53:11.362Z,55.80
2023-05-15T10:55:39.268Z,55.80
2023-05-15T10:58:11.497Z,55.80
2023-05-15T11:00:43.996Z,55.80
2023-05-15T11:03:15.353Z,55.80
2023-05-15T11:06:08.595Z,55.90
2023-05-15T11:08:36.978Z,55.90
2023-05-15T11:11:04.857Z,55.90
2023-05-15T11:14:06.212Z,55.90
2023-05-15T11:16:59.662Z,55.90
2023-05-15T11:19:37.243Z,55.90
2023-05-15T11:22:18.022Z,55.90
2023-05-15T11:24:51.294Z,55.90
2023-05-15T11:27:20.780Z,55.90
2023-05-15T11:30:14.850Z,55.90
2023-05-15T11:32:57.066Z,55.90
2023-05-15T11:35:29.698Z,55.90
2023-05-15T11:37:59.192Z,55.90
2023-05-15T11:40:28.552Z,55.90
2023-05-15T11:43:01.536Z,55.80
2023-05-15T11:45:31.169Z,55.90
2023-05-15T11:48:02.366Z,55.80
2023-05-15T11:50:32.642Z,55.90
2023-05-15T11:53:04.427Z,55.90
2023-05-15T11:55:33.502Z,55.80
2023-05-15T11:58:01.543Z,55.90
2023-05-15T12:00:29.470Z,55.80
2023-05-15T12:02:57.648Z,55.80
2023-05-15T12:05:26.996Z,55.90
2023-05-15T12:07:54.929Z,55.80
2023-05-15T12:10:23.030Z,55.90
2023-05-15T12:12:51.192Z,56.00
2023-05-15T12:15:19.103Z,55.90
2023-05-15T12:17:47.150Z,55.90
2023-05-15T12:20:18.460Z,55.80
2023-05-15T12:22:47.875Z,55.90
2023-05-15T12:25:16.513Z,55.90
2023-05-15T12:27:44.676Z,55.90
2023-05-15T12:30:15.527Z,56.00
2023-05-15T12:32:43.723Z,55.90
2023-05-15T12:35:12.788Z,55.90
2023-05-15T12:37:41.142Z,55.90
2023-05-15T12:40:12.198Z,56.00
2023-05-15T12:42:41.413Z,55.90
2023-05-15T12:45:19.223Z,55.90
2023-05-15T12:47:49.344Z,55.90
2023-05-15T12:50:18.161Z,56.00
2023-05-15T12:52:52.664Z,55.90
2023-05-15T12:55:25.323Z,55.90
2023-05-15T12:57:53.630Z,55.90
2023-05-15T13:00:23.139Z,55.90
2023-05-15T13:02:53.715Z,55.90
2023-05-15T13:05:23.544Z,55.90
2023-05-15T13:07:52.326Z,55.90
2023-05-15T13:10:24.390Z,55.90
2023-05-15T13:12:53.896Z,56.00
2023-05-15T13:15:27.840Z,55.90
2023-05-15T13:17:59.038Z,55.90
2023-05-15T13:20:28.163Z,55.90
2023-05-15T13:22:56.205Z,56.00
2023-05-15T13:25:25.833Z,55.90
2023-05-15T13:27:53.732Z,56.00
2023-05-15T13:30:21.749Z,56.00
2023-05-15T13:32:49.667Z,55.90
2023-05-15T13:35:17.593Z,56.60
2023-05-15T13:37:45.914Z,55.90
2023-05-15T13:40:14.580Z,55.90
2023-05-15T13:42:45.147Z,55.90
2023-05-15T13:45:15.245Z,56.50
2023-05-15T13:47:43.464Z,55.90
2023-05-15T13:50:12.780Z,55.90
2023-05-15T13:52:41.508Z,55.90
2023-05-15T13:55:10.568Z,55.80
2023-05-15T13:57:38.566Z,55.90
2023-05-15T14:00:11.633Z,55.90
2023-05-15T14:02:39.731Z,55.80
2023-05-15T14:05:08.788Z,55.90
2023-05-15T14:07:36.829Z,55.90
2023-05-15T14:10:05.240Z,55.90
2023-05-15T14:12:33.691Z,55.90
2023-05-15T14:15:01.859Z,55.80
2023-05-15T14:17:31.157Z,55.90
2023-05-15T14:19:59.089Z,55.90
2023-05-15T14:22:27.003Z,55.90
2023-05-15T14:24:54.965Z,55.90
2023-05-15T14:27:22.885Z,55.90
2023-05-15T14:29:51.299Z,55.90
2023-05-15T14:32:19.317Z,55.90
2023-05-15T14:34:48.589Z,55.90
2023-05-15T14:37:16.649Z,55.90
2023-05-15T14:39:44.548Z,55.90
2023-05-15T14:42:12.872Z,55.90
2023-05-15T14:44:40.773Z,55.90
2023-05-15T14:47:10.253Z,55.90
2023-05-15T14:49:38.438Z,55.90
2023-05-15T14:52:09.577Z,55.90
2023-05-15T14:54:38.648Z,55.90
2023-05-15T14:57:06.952Z,55.90
2023-05-15T14:59:34.849Z,55.90
2023-05-15T15:02:03.213Z,55.90
2023-05-15T15:04:34.292Z,55.90
2023-05-15T15:07:04.690Z,55.90
2023-05-15T15:09:33.948Z,55.90
2023-05-15T15:12:01.811Z,55.90
2023-05-15T15:14:30.352Z,55.90
2023-05-15T15:16:58.207Z,55.90
2023-05-15T15:19:26.322Z,55.90
2023-05-15T15:21:54.211Z,55.90
2023-05-15T15:24:22.064Z,55.90
2023-05-15T15:26:51.307Z,55.90
2023-05-15T15:29:19.144Z,55.80
2023-05-15T15:31:47.044Z,55.80
2023-05-15T15:34:14.911Z,55.80
2023-05-15T15:36:43.671Z,55.90
2023-05-15T15:39:12.873Z,55.90
2023-05-15T15:41:40.923Z,55.90
2023-05-15T15:44:10.114Z,55.90
2023-05-15T15:46:37.995Z,55.90
2023-05-15T15:49:06.777Z,55.80
2023-05-15T15:51:34.845Z,55.90
2023-05-15T15:54:03.199Z,55.90
2023-05-15T15:56:31.121Z,55.90
2023-05-15T15:58:58.989Z,55.90
2023-05-15T16:01:28.907Z,55.90
2023-05-15T16:03:56.802Z,55.90
2023-05-15T16:06:24.665Z,55.90
2023-05-15T16:08:52.800Z,55.90
2023-05-15T16:11:21.473Z,55.90
2023-05-15T16:13:49.349Z,55.90
2023-05-15T16:16:17.320Z,55.90
2023-05-15T16:18:46.840Z,55.90
2023-05-15T16:21:14.952Z,55.90
2023-05-15T16:23:43.056Z,55.90
2023-05-15T16:26:11.896Z,55.90
2023-05-15T16:28:39.867Z,55.90
2023-05-15T16:31:07.888Z,55.90
2023-05-15T16:33:35.915Z,55.90
2023-05-15T16:36:05.931Z,55.90
2023-05-15T16:38:34.014Z,55.90
2023-05-15T16:41:02.181Z,55.90
2023-05-15T16:43:30.080Z,55.90
2023-05-15T16:45:58.096Z,55.90
2023-05-15T16:48:26.256Z,55.90
2023-05-15T16:50:54.428Z,55.90
2023-05-15T16:53:23.727Z,55.90
2023-05-15T16:55:51.727Z,55.90
2023-05-15T16:58:20.109Z,55.90
2023-05-15T17:00:48.059Z,55.90
2023-05-15T17:03:17.397Z,55.90
2023-05-15T17:05:46.171Z,55.90
2023-05-15T17:08:14.069Z,55.90
2023-05-15T17:10:43.239Z,55.90
2023-05-15T17:13:11.122Z,55.90
2023-05-15T17:15:39.013Z,55.90
2023-05-15T17:18:07.006Z,56.60
2023-05-15T17:20:34.950Z,55.90
2023-05-15T17:23:02.778Z,55.90
2023-05-15T17:25:30.688Z,55.90
2023-05-15T17:27:59.949Z,56.00
2023-05-15T17:30:27.918Z,56.00
2023-05-15T17:32:56.713Z,56.00
2023-05-15T17:35:25.089Z,56.00
2023-05-15T17:37:53.050Z,55.90
2023-05-15T17:40:20.973Z,56.60
2023-05-15T17:42:48.945Z,55.90
2023-05-15T17:45:18.407Z,55.90
2023-05-15T17:47:46.296Z,55.90
2023-05-15T17:50:14.162Z,56.00
2023-05-15T17:52:42.028Z,55.90
2023-05-15T17:55:10.623Z,56.00
2023-05-15T17:57:38.471Z,56.00
2023-05-15T18:00:07.720Z,55.90
2023-05-15T18:02:36.951Z,55.90
2023-05-15T18:05:05.064Z,56.10
2023-05-15T18:07:32.896Z,55.90
2023-05-15T18:10:00.725Z,55.90
2023-05-15T18:12:28.644Z,55.90
2023-05-15T18:14:56.570Z,55.90
2023-05-15T18:17:24.571Z,55.90
2023-05-15T18:19:53.818Z,55.90
2023-05-15T18:22:21.719Z,55.90
2023-05-15T18:24:49.566Z,55.90
2023-05-15T18:27:17.426Z,55.90
2023-05-15T18:29:45.699Z,55.90
2023-05-15T18:32:13.611Z,55.90
2023-05-15T18:34:41.484Z,55.90
2023-05-15T18:37:10.641Z,55.90
2023-05-15T18:39:39.202Z,55.90
2023-05-15T18:42:07.842Z,55.90
2023-05-15T18:44:35.957Z,55.90
2023-05-15T18:47:04.993Z,55.90
2023-05-15T18:49:33.753Z,55.90
2023-05-15T18:52:01.717Z,55.90
2023-05-15T18:54:31.097Z,55.90
2023-05-15T18:56:58.978Z,55.90
2023-05-15T18:59:27.061Z,55.80
2023-05-15T19:01:55.531Z,55.80
2023-05-15T19:04:23.376Z,56.00
2023-05-15T19:06:51.365Z,56.00
2023-05-15T19:09:19.416Z,55.90
2023-05-15T19:11:49.390Z,55.90
2023-05-15T19:14:17.986Z,56.00
2023-05-15T19:16:46.697Z,55.80
2023-05-15T19:19:14.872Z,55.90
2023-05-15T19:21:42.749Z,55.90
2023-05-15T19:24:10.931Z,55.80
2023-05-15T19:26:38.812Z,55.90
2023-05-15T19:29:08.061Z,56.00
2023-05-15T19:31:37.266Z,55.90
2023-05-15T19:34:05.483Z,55.80
2023-05-15T19:36:33.390Z,56.00
2023-05-15T19:39:01.221Z,55.90
2023-05-15T19:41:29.221Z,55.80
2023-05-15T19:43:57.077Z,55.90
2023-05-15T19:46:26.311Z,55.90
2023-05-15T19:48:54.219Z,55.90
2023-05-15T19:51:22.103Z,55.90
2023-05-15T19:53:49.927Z,55.90
2023-05-15T19:56:17.801Z,55.90
2023-05-15T19:58:45.637Z,56.00
2023-05-15T20:01:13.572Z,55.90
2023-05-15T20:03:42.968Z,55.90
2023-05-15T20:06:12.082Z,55.90
2023-05-15T20:08:40.936Z,55.90
2023-05-15T20:11:08.950Z,55.80
2023-05-15T20:13:37.442Z,55.90
2023-05-15T20:16:09.178Z,55.90
2023-05-15T20:18:39.613Z,55.90
2023-05-15T20:21:08.956Z,55.90
2023-05-15T20:23:36.779Z,55.90
2023-05-15T20:26:04.838Z,55.90
2023-05-15T20:28:32.792Z,55.90
2023-05-15T20:31:01.432Z,55.90
2023-05-15T20:33:29.347Z,55.90
2023-05-15T20:35:57.251Z,55.90
2023-05-15T20:38:26.597Z,55.90
2023-05-15T20:40:54.472Z,55.90
2023-05-15T20:43:22.411Z,55.90
2023-05-15T20:45:50.561Z,55.90
2023-05-15T20:48:18.525Z,55.90
2023-05-15T20:50:46.457Z,55.90
2023-05-15T20:53:14.387Z,55.90
2023-05-15T20:55:43.630Z,55.90
2023-05-15T20:58:11.614Z,55.90
2023-05-15T21:00:39.519Z,55.90
2023-05-15T21:03:07.606Z,55.90
2023-05-15T21:05:35.587Z,55.90
2023-05-15T21:08:03.581Z,55.90
2023-05-15T21:10:31.458Z,55.90
2023-05-15T21:13:00.709Z,55.90
2023-05-15T21:15:28.834Z,55.90
2023-05-15T21:17:56.753Z,55.90
2023-05-15T21:20:24.784Z,55.90
2023-05-15T21:22:52.977Z,55.90
2023-05-15T21:25:20.861Z,55.90
2023-05-15T21:27:48.716Z,55.90
2023-05-15T21:30:18.153Z,55.90
2023-05-15T21:32:46.249Z,55.80
2023-05-15T21:35:14.119Z,55.90
2023-05-15T21:37:42.002Z,55.90
2023-05-15T21:40:11.129Z,55.80
2023-05-15T21:42:38.980Z,55.80
2023-05-15T21:45:08.145Z,55.80
2023-05-15T21:47:37.419Z,55.90
2023-05-15T21:50:06.319Z,55.90
2023-05-15T21:52:34.317Z,55.80
2023-05-15T21:55:02.688Z,55.80
2023-05-15T21:57:30.579Z,55.90
2023-05-15T21:59:58.454Z,55.90
2023-05-15T22:02:26.370Z,55.80
2023-05-15T22:04:55.545Z,55.80
2023-05-15T22:07:23.383Z,55.90
2023-05-15T22:09:51.802Z,56.50
2023-05-15T22:12:19.752Z,55.80
2023-05-15T22:14:58.558Z,55.80
2023-05-15T22:17:30.532Z,55.80
2023-05-15T22:20:07.230Z,55.90
2023-05-15T22:22:36.149Z,55.80
2023-05-15T22:25:04.196Z,55.80
2023-05-15T22:27:32.037Z,55.80
2023-05-15T22:29:59.978Z,55.90
2023-05-15T22:32:27.911Z,55.90
2023-05-15T22:34:56.429Z,55.80
2023-05-15T22:37:25.774Z,55.80
2023-05-15T22:39:53.838Z,55.80
2023-05-15T22:42:21.686Z,55.80
2023-05-15T22:44:49.601Z,55.80
2023-05-15T22:47:17.557Z,55.80
2023-05-15T22:49:45.467Z,55.80
2023-05-15T22:52:14.066Z,55.80
2023-05-15T22:54:43.458Z,55.80
2023-05-15T22:57:11.383Z,55.80
2023-05-15T22:59:39.683Z,55.80
2023-05-15T23:02:07.581Z,55.80
2023-05-15T23:04:35.591Z,55.80
2023-05-15T23:07:03.461Z,55.80
2023-05-15T23:09:31.298Z,55.80
2023-05-15T23:12:00.586Z,55.80
2023-05-15T23:14:28.583Z,55.80
2023-05-15T23:16:56.468Z,55.80
2023-05-15T23:19:24.395Z,55.90
2023-05-15T23:21:52.521Z,55.80
2023-05-15T23:24:20.397Z,55.80
2023-05-15T23:26:48.394Z,55.80
2023-05-15T23:29:17.634Z,55.80
2023-05-15T23:31:45.721Z,55.80
2023-05-15T23:34:13.720Z,55.80
2023-05-15T23:36:41.627Z,55.80
2023-05-15T23:39:09.480Z,55.80
2023-05-15T23:41:37.338Z,55.80
2023-05-15T23:44:05.713Z,55.80
2023-05-15T23:46:35.552Z,55.80
2023-05-15T23:49:03.600Z,55.80
2023-05-15T23:51:32.313Z,55.80
2023-05-15T23:54:00.188Z,55.80
2023-05-15T23:56:28.074Z,55.80
2023-05-15T23:58:55.929Z,55.80
